createdAt,value
2018-03-17T00:01:47.531Z,6.80
2018-03-17T00:04:16.070Z,9.00
2018-03-17T00:06:44.609Z,5.43
2018-03-17T00:09:13.009Z,9.00
2018-03-17T00:11:42.177Z,5.27
2018-03-17T00:14:10.580Z,6.03
2018-03-17T00:16:39.735Z,7.53
2018-03-17T00:19:08.134Z,4.77
2018-03-17T00:21:36.544Z,6.53
2018-03-17T00:24:04.591Z,4.53
2018-03-17T00:26:33.778Z,5.67
2018-03-17T00:29:02.188Z,6.77
2018-03-17T00:31:31.563Z,7.20
2018-03-17T00:34:00.765Z,5.43
2018-03-17T00:36:30.492Z,7.13
2018-03-17T00:38:59.674Z,6.87
2018-03-17T00:41:29.491Z,8.53
2018-03-17T00:43:58.666Z,6.47
2018-03-17T00:46:27.082Z,4.83
2018-03-17T00:48:55.471Z,7.07
2018-03-17T00:51:23.882Z,6.83
2018-03-17T00:53:52.281Z,8.90
2018-03-17T00:56:20.484Z,6.20
2018-03-17T00:58:48.884Z,4.57
2018-03-17T01:01:17.102Z,8.77
2018-03-17T01:03:45.298Z,7.27
2018-03-17T01:06:14.480Z,7.00
2018-03-17T01:08:42.930Z,9.80
2018-03-17T01:11:11.337Z,5.80
2018-03-17T01:13:39.754Z,11.17
2018-03-17T01:16:08.155Z,16.57
2018-03-17T01:18:36.573Z,13.03
2018-03-17T01:21:05.583Z,12.60
2018-03-17T01:23:34.732Z,13.77
2018-03-17T01:26:03.146Z,13.70
2018-03-17T01:28:31.568Z,10.87
2018-03-17T01:31:00.229Z,13.37
2018-03-17T01:33:29.416Z,11.10
2018-03-17T01:35:58.754Z,12.47
2018-03-17T01:38:27.165Z,13.13
2018-03-17T01:40:56.340Z,13.17
2018-03-17T01:43:24.740Z,13.27
2018-03-17T01:45:53.139Z,14.70
2018-03-17T01:48:22.328Z,13.80
2018-03-17T01:50:50.707Z,14.63
2018-03-17T01:53:19.113Z,12.77
2018-03-17T01:55:48.285Z,12.67
2018-03-17T01:58:16.688Z,12.77
2018-03-17T02:00:45.854Z,14.93
2018-03-17T02:03:14.291Z,11.97
2018-03-17T02:05:42.698Z,15.23
2018-03-17T02:08:11.094Z,17.90
2018-03-17T02:10:39.505Z,17.97
2018-03-17T02:13:07.906Z,15.20
2018-03-17T02:15:36.310Z,16.47
2018-03-17T02:18:04.714Z,18.30
2018-03-17T02:20:33.136Z,19.70
2018-03-17T02:23:01.537Z,16.93
2018-03-17T02:25:30.709Z,17.87
2018-03-17T02:27:59.506Z,18.93
2018-03-17T02:30:27.896Z,16.67
2018-03-17T02:32:56.301Z,19.67
2018-03-17T02:35:24.708Z,18.57
2018-03-17T02:37:53.880Z,17.20
2018-03-17T02:40:22.259Z,20.70
2018-03-17T02:42:50.672Z,17.57
2018-03-17T02:45:19.062Z,18.37
2018-03-17T02:47:47.462Z,19.80
2018-03-17T02:50:15.880Z,15.63
2018-03-17T02:52:44.274Z,16.77
2018-03-17T02:55:13.454Z,18.57
2018-03-17T02:57:42.623Z,17.83
2018-03-17T03:00:11.054Z,18.40
2018-03-17T03:02:40.217Z,17.63
2018-03-17T03:05:08.638Z,20.77
2018-03-17T03:07:37.038Z,17.70
2018-03-17T03:10:04.809Z,16.77
2018-03-17T03:12:33.221Z,17.80
2018-03-17T03:15:01.647Z,16.80
2018-03-17T03:17:30.945Z,15.87
2018-03-17T03:20:00.097Z,17.50
2018-03-17T03:22:29.213Z,16.97
2018-03-17T03:24:58.685Z,19.83
2018-03-17T03:27:27.089Z,16.13
2018-03-17T03:29:56.347Z,16.93
2018-03-17T03:32:25.537Z,16.30
2018-03-17T03:34:53.922Z,18.70
2018-03-17T03:37:22.322Z,20.43
2018-03-17T03:39:50.737Z,17.23
2018-03-17T03:42:19.935Z,17.10
2018-03-17T03:44:48.333Z,19.30
2018-03-17T03:47:16.738Z,21.17
2018-03-17T03:49:45.194Z,20.00
2018-03-17T03:52:13.589Z,27.27
2018-03-17T03:54:42.005Z,15.37
2018-03-17T03:57:10.397Z,31.97
2018-03-17T03:59:39.562Z,15.10
2018-03-17T04:02:07.661Z,18.33
2018-03-17T04:04:36.851Z,49.73
2018-03-17T04:07:06.017Z,14.97
2018-03-17T04:09:34.426Z,30.07
2018-03-17T04:12:02.811Z,14.50
2018-03-17T04:14:32.062Z,21.60
2018-03-17T04:17:01.168Z,21.07
2018-03-17T04:19:30.188Z,18.17
2018-03-17T04:21:58.754Z,20.30
2018-03-17T04:24:26.975Z,13.33
2018-03-17T04:26:55.377Z,18.70
2018-03-17T04:29:23.592Z,13.77
2018-03-17T04:31:52.011Z,16.00
2018-03-17T04:34:20.416Z,15.60
2018-03-17T04:36:48.827Z,16.73
2018-03-17T04:39:17.320Z,15.17
2018-03-17T04:41:46.477Z,17.43
2018-03-17T04:44:14.891Z,16.93
2018-03-17T04:46:43.276Z,18.40
2018-03-17T04:49:12.450Z,19.23
2018-03-17T04:51:40.835Z,20.30
2018-03-17T04:54:09.238Z,17.80
2018-03-17T04:56:38.416Z,23.50
2018-03-17T04:59:06.868Z,21.13
2018-03-17T05:01:35.283Z,22.53
2018-03-17T05:04:04.268Z,23.50
2018-03-17T05:06:32.354Z,24.30
2018-03-17T05:09:01.618Z,27.10
2018-03-17T05:11:30.906Z,22.17
2018-03-17T05:14:00.484Z,22.80
2018-03-17T05:16:29.296Z,25.43
2018-03-17T05:18:57.729Z,25.00
2018-03-17T05:21:26.904Z,24.30
2018-03-17T05:23:55.314Z,28.23
2018-03-17T05:26:23.694Z,27.73
2018-03-17T05:28:52.111Z,25.63
2018-03-17T05:31:20.523Z,27.00
2018-03-17T05:33:49.715Z,25.97
2018-03-17T05:36:18.121Z,28.93
2018-03-17T05:38:47.109Z,26.37
2018-03-17T05:41:16.284Z,25.50
2018-03-17T05:43:44.679Z,26.30
2018-03-17T05:46:13.672Z,27.63
2018-03-17T05:48:42.845Z,25.50
2018-03-17T05:51:11.246Z,27.13
2018-03-17T05:53:40.430Z,32.27
2018-03-17T05:56:08.832Z,29.23
2018-03-17T05:58:38.005Z,28.30
2018-03-17T06:01:06.412Z,24.53
2018-03-17T06:03:34.813Z,24.33
2018-03-17T06:06:03.218Z,30.17
2018-03-17T06:08:31.747Z,29.30
2018-03-17T06:11:01.120Z,25.37
2018-03-17T06:13:29.564Z,36.83
2018-03-17T06:15:57.991Z,26.67
2018-03-17T06:18:27.154Z,27.47
2018-03-17T06:20:56.314Z,23.80
2018-03-17T06:23:24.724Z,26.33
2018-03-17T06:25:53.131Z,24.87
2018-03-17T06:28:21.571Z,29.20
2018-03-17T06:30:50.046Z,25.37
2018-03-17T06:33:18.593Z,25.27
2018-03-17T06:35:47.761Z,24.43
2018-03-17T06:38:16.387Z,25.90
2018-03-17T06:40:44.788Z,24.43
2018-03-17T06:43:13.189Z,29.03
2018-03-17T06:45:41.609Z,27.20
2018-03-17T06:48:10.754Z,23.67
2018-03-17T06:50:39.176Z,26.83
2018-03-17T06:53:08.366Z,22.20
2018-03-17T06:55:36.764Z,28.90
2018-03-17T06:58:05.947Z,23.97
2018-03-17T07:00:35.133Z,25.33
2018-03-17T07:03:03.716Z,25.83
2018-03-17T07:05:32.107Z,26.67
2018-03-17T07:08:02.016Z,27.60
2018-03-17T07:10:32.058Z,28.97
2018-03-17T07:13:00.476Z,27.73
2018-03-17T07:15:28.937Z,29.00
2018-03-17T07:17:57.333Z,28.50
2018-03-17T07:20:25.752Z,26.37
2018-03-17T07:22:54.907Z,27.67
2018-03-17T07:25:23.431Z,27.97
2018-03-17T07:27:51.993Z,29.60
2018-03-17T07:30:20.407Z,31.83
2018-03-17T07:32:49.568Z,29.83
2018-03-17T07:35:17.994Z,28.80
2018-03-17T07:37:46.394Z,31.63
2018-03-17T07:40:14.607Z,28.50
2018-03-17T07:42:43.038Z,28.83
2018-03-17T07:45:11.448Z,30.50
2018-03-17T07:47:39.867Z,26.93
2018-03-17T07:50:08.365Z,25.93
2018-03-17T07:52:36.772Z,27.90
2018-03-17T07:55:04.847Z,30.27
2018-03-17T07:57:33.281Z,29.07
2018-03-17T08:00:02.461Z,30.97
2018-03-17T08:02:32.382Z,29.97
2018-03-17T08:05:01.809Z,29.13
2018-03-17T08:07:31.089Z,28.67
2018-03-17T08:10:00.632Z,26.33
2018-03-17T08:12:30.038Z,29.30
2018-03-17T08:14:58.283Z,32.17
2018-03-17T08:17:26.683Z,30.13
2018-03-17T08:19:55.094Z,37.77
2018-03-17T08:22:23.530Z,37.47
2018-03-17T08:24:52.889Z,33.73
2018-03-17T08:27:21.303Z,30.50
2018-03-17T08:29:49.776Z,31.13
2018-03-17T08:32:18.208Z,28.87
2018-03-17T08:34:46.664Z,27.00
2018-03-17T08:37:15.063Z,26.50
2018-03-17T08:39:43.477Z,26.63
2018-03-17T08:42:12.642Z,28.83
2018-03-17T08:44:41.057Z,28.10
2018-03-17T08:47:10.034Z,27.80
2018-03-17T08:49:38.454Z,29.40
2018-03-17T08:52:06.879Z,32.17
2018-03-17T08:54:35.301Z,30.30
2018-03-17T08:57:03.719Z,30.57
2018-03-17T08:59:32.132Z,32.43
2018-03-17T09:02:00.575Z,33.63
2018-03-17T09:04:29.023Z,32.10
2018-03-17T09:06:57.421Z,30.57
2018-03-17T09:09:25.843Z,33.43
2018-03-17T09:11:54.263Z,33.40
2018-03-17T09:14:22.667Z,31.17
2018-03-17T09:16:51.823Z,41.13
2018-03-17T09:19:20.996Z,37.37
2018-03-17T09:21:49.405Z,34.03
2018-03-17T09:24:17.831Z,31.30
2018-03-17T09:26:46.247Z,37.40
2018-03-17T09:29:15.441Z,37.77
2018-03-17T09:31:44.591Z,36.77
2018-03-17T09:34:13.017Z,34.13
2018-03-17T09:36:42.171Z,35.53
2018-03-17T09:39:11.333Z,39.77
2018-03-17T09:41:39.773Z,39.17
2018-03-17T09:44:08.165Z,38.43
2018-03-17T09:46:37.332Z,38.27
2018-03-17T09:49:05.729Z,42.23
2018-03-17T09:51:34.123Z,37.33
2018-03-17T09:54:03.293Z,41.17
2018-03-17T09:56:32.029Z,41.70
2018-03-17T09:59:01.323Z,41.53
2018-03-17T10:01:29.731Z,38.83
2018-03-17T10:03:58.160Z,39.70
2018-03-17T10:06:27.314Z,37.70
2018-03-17T10:08:55.716Z,34.57
2018-03-17T10:11:24.128Z,38.63
2018-03-17T10:13:53.289Z,37.70
2018-03-17T10:16:22.558Z,36.10
2018-03-17T10:18:50.971Z,38.30
2018-03-17T10:21:19.380Z,38.33
2018-03-17T10:23:48.373Z,42.17
2018-03-17T10:26:17.341Z,38.37
2018-03-17T10:28:45.833Z,41.97
2018-03-17T10:31:15.018Z,40.57
2018-03-17T10:33:43.439Z,39.77
2018-03-17T10:36:11.840Z,39.13
2018-03-17T10:38:40.043Z,35.53
2018-03-17T10:41:08.486Z,38.70
2018-03-17T10:43:36.873Z,33.30
2018-03-17T10:46:05.274Z,34.87
2018-03-17T10:48:33.497Z,36.27
2018-03-17T10:51:01.916Z,32.83
2018-03-17T10:53:30.859Z,37.07
2018-03-17T10:55:59.743Z,37.77
2018-03-17T10:58:27.961Z,38.07
2018-03-17T11:01:01.045Z,38.93
2018-03-17T11:03:29.923Z,40.27
2018-03-17T11:05:58.195Z,40.20
2018-03-17T11:08:26.750Z,39.87
2018-03-17T11:10:55.930Z,37.17
2018-03-17T11:13:24.342Z,37.20
2018-03-17T11:15:52.726Z,34.93
2018-03-17T11:18:21.162Z,35.73
2018-03-17T11:20:49.572Z,35.07
2018-03-17T11:23:17.980Z,35.20
2018-03-17T11:25:46.410Z,33.10
2018-03-17T11:28:15.588Z,34.90
2018-03-17T11:30:44.014Z,31.47
2018-03-17T11:33:12.408Z,31.23
2018-03-17T11:35:40.621Z,33.87
2018-03-17T11:38:09.025Z,29.20
2018-03-17T11:40:37.861Z,32.77
2018-03-17T11:43:06.273Z,29.50
2018-03-17T11:45:34.703Z,33.63
2018-03-17T11:48:03.130Z,33.53
2018-03-17T11:50:32.431Z,33.93
2018-03-17T11:53:01.615Z,35.47
2018-03-17T11:55:30.638Z,33.07
2018-03-17T11:57:59.788Z,35.63
2018-03-17T12:00:28.194Z,33.83
2018-03-17T12:02:56.676Z,37.70
2018-03-17T12:05:25.242Z,36.10
2018-03-17T12:07:53.655Z,35.23
2018-03-17T12:10:22.837Z,47.23
2018-03-17T12:12:52.030Z,39.03
2018-03-17T12:15:20.446Z,35.87
2018-03-17T12:17:48.839Z,36.87
2018-03-17T12:20:17.276Z,38.40
2018-03-17T12:22:45.694Z,44.20
2018-03-17T12:25:14.093Z,42.63
2018-03-17T12:27:42.510Z,40.03
2018-03-17T12:30:11.685Z,37.73
2018-03-17T12:32:40.109Z,38.07
2018-03-17T12:35:08.510Z,32.53
2018-03-17T12:37:36.929Z,38.03
2018-03-17T12:40:05.340Z,34.27
2018-03-17T12:42:33.761Z,38.10
2018-03-17T12:45:02.151Z,35.40
2018-03-17T12:47:30.558Z,35.63
2018-03-17T12:50:00.446Z,37.23
2018-03-17T12:52:29.291Z,36.43
2018-03-17T12:54:57.688Z,36.30
2018-03-17T12:57:26.095Z,35.23
2018-03-17T12:59:54.513Z,34.00
2018-03-17T13:02:22.914Z,35.53
2018-03-17T13:04:51.319Z,35.87
2018-03-17T13:07:19.708Z,34.27
2018-03-17T13:09:48.110Z,36.80
2018-03-17T13:12:17.420Z,37.40
2018-03-17T13:14:45.892Z,39.13
2018-03-17T13:17:15.057Z,35.80
2018-03-17T13:19:43.497Z,33.87
2018-03-17T13:22:11.883Z,34.27
2018-03-17T13:24:40.276Z,36.20
2018-03-17T13:27:20.013Z,37.00
2018-03-17T13:29:48.598Z,32.23
2018-03-17T13:32:28.263Z,32.57
2018-03-17T13:34:56.672Z,33.97
2018-03-17T13:37:38.868Z,35.77
2018-03-17T13:40:19.306Z,36.00
2018-03-17T13:42:47.736Z,38.40
2018-03-17T13:45:16.123Z,35.43
2018-03-17T13:47:44.527Z,34.60
2018-03-17T13:50:12.942Z,34.50
2018-03-17T13:52:42.106Z,32.80
2018-03-17T13:55:10.521Z,37.17
2018-03-17T13:57:38.964Z,33.83
2018-03-17T14:00:07.353Z,39.23
2018-03-17T14:02:35.778Z,35.00
2018-03-17T14:05:03.692Z,43.53
2018-03-17T14:07:32.085Z,42.80
2018-03-17T14:10:02.243Z,36.90
2018-03-17T14:12:30.705Z,31.90
2018-03-17T14:14:59.182Z,32.50
2018-03-17T14:17:27.579Z,30.67
2018-03-17T14:19:55.996Z,32.37
2018-03-17T14:22:24.454Z,32.60
2018-03-17T14:24:52.870Z,34.17
2018-03-17T14:27:21.274Z,29.73
2018-03-17T14:29:49.728Z,36.03
2018-03-17T14:32:18.897Z,31.70
2018-03-17T14:34:48.082Z,35.00
2018-03-17T14:37:16.641Z,31.20
2018-03-17T14:39:45.119Z,31.47
2018-03-17T14:42:13.549Z,31.77
2018-03-17T14:44:42.231Z,32.88
2018-03-17T14:47:10.929Z,37.65
2018-03-17T14:49:39.575Z,31.80
2018-03-17T14:52:07.988Z,30.33
2018-03-17T14:54:36.434Z,31.37
2018-03-17T14:57:04.846Z,29.57
2018-03-17T14:59:33.269Z,30.33
2018-03-17T15:02:02.525Z,34.43
2018-03-17T15:04:31.721Z,33.03
2018-03-17T15:07:00.614Z,31.13
2018-03-17T15:09:29.122Z,37.63
2018-03-17T15:11:57.563Z,48.00
2018-03-17T15:14:25.964Z,37.20
2018-03-17T15:16:55.167Z,38.27
2018-03-17T15:19:24.323Z,37.50
2018-03-17T15:21:52.721Z,35.00
2018-03-17T15:24:21.951Z,34.07
2018-03-17T15:26:50.383Z,33.93
2018-03-17T15:29:18.956Z,34.67
2018-03-17T15:31:47.429Z,30.97
2018-03-17T15:34:15.828Z,32.53
2018-03-17T15:36:44.228Z,32.60
2018-03-17T15:39:13.432Z,32.13
2018-03-17T15:41:42.592Z,31.43
2018-03-17T15:44:10.994Z,32.50
2018-03-17T15:46:40.194Z,29.63
2018-03-17T15:49:09.401Z,29.73
2018-03-17T15:51:37.798Z,27.40
2018-03-17T15:54:06.187Z,32.40
2018-03-17T15:56:34.613Z,31.27
2018-03-17T15:59:03.825Z,26.80
2018-03-17T16:01:33.039Z,26.43
2018-03-17T16:04:01.461Z,27.73
2018-03-17T16:06:29.996Z,62.03
2018-03-17T16:08:58.411Z,39.00
2018-03-17T16:11:26.813Z,43.23
2018-03-17T16:13:55.227Z,34.77
2018-03-17T16:16:23.632Z,35.60
2018-03-17T16:18:52.053Z,31.67
2018-03-17T16:21:20.460Z,26.80
2018-03-17T16:23:48.858Z,30.57
2018-03-17T16:26:16.980Z,25.93
2018-03-17T16:28:46.160Z,40.50
2018-03-17T16:31:14.748Z,36.50
2018-03-17T16:33:43.175Z,28.80
2018-03-17T16:36:11.560Z,29.07
2018-03-17T16:38:39.999Z,29.43
2018-03-17T16:41:09.157Z,28.00
2018-03-17T16:43:37.561Z,29.10
2018-03-17T16:46:05.899Z,31.03
2018-03-17T16:48:34.302Z,28.33
2018-03-17T16:51:02.698Z,29.50
2018-03-17T16:53:31.862Z,32.13
2018-03-17T16:56:00.275Z,33.90
2018-03-17T16:58:30.082Z,29.43
2018-03-17T17:00:59.343Z,31.30
2018-03-17T17:03:27.747Z,25.73
2018-03-17T17:05:56.333Z,29.57
2018-03-17T17:08:24.789Z,31.40
2018-03-17T17:10:53.180Z,30.83
2018-03-17T17:13:21.579Z,28.23
2018-03-17T17:15:50.807Z,29.87
2018-03-17T17:18:19.031Z,30.80
2018-03-17T17:20:47.435Z,26.33
2018-03-17T17:23:16.624Z,27.77
2018-03-17T17:25:45.795Z,25.87
2018-03-17T17:28:14.254Z,28.83
2018-03-17T17:30:42.666Z,26.50
2018-03-17T17:33:11.856Z,29.43
2018-03-17T17:35:40.337Z,27.47
2018-03-17T17:38:08.746Z,27.60
2018-03-17T17:40:37.176Z,28.67
2018-03-17T17:43:05.624Z,27.97
2018-03-17T17:45:34.062Z,28.40
2018-03-17T17:48:03.285Z,26.20
2018-03-17T17:50:32.662Z,26.83
2018-03-17T17:53:02.833Z,31.17
2018-03-17T17:55:31.411Z,26.47
2018-03-17T17:58:00.785Z,26.83
2018-03-17T18:00:29.278Z,24.43
2018-03-17T18:02:57.705Z,25.40
2018-03-17T18:05:26.157Z,25.03
2018-03-17T18:07:54.567Z,27.70
2018-03-17T18:10:23.732Z,26.30
2018-03-17T18:12:52.167Z,26.70
2018-03-17T18:15:20.564Z,28.53
2018-03-17T18:17:48.969Z,26.53
2018-03-17T18:20:17.399Z,23.80
2018-03-17T18:22:45.812Z,24.70
2018-03-17T18:25:14.216Z,28.50
2018-03-17T18:27:42.327Z,25.43
2018-03-17T18:30:10.782Z,29.90
2018-03-17T18:32:39.341Z,26.07
2018-03-17T18:35:07.796Z,28.70
2018-03-17T18:37:36.188Z,26.27
2018-03-17T18:40:03.938Z,26.37
2018-03-17T18:42:32.389Z,28.77
2018-03-17T18:45:00.785Z,27.17
2018-03-17T18:47:29.233Z,29.33
2018-03-17T18:49:57.634Z,28.60
2018-03-17T18:52:26.428Z,30.87
2018-03-17T18:54:54.878Z,29.67
2018-03-17T18:57:23.280Z,29.33
2018-03-17T18:59:51.689Z,32.90
2018-03-17T19:02:20.121Z,31.77
2018-03-17T19:04:48.526Z,24.13
2018-03-17T19:07:16.937Z,30.23
2018-03-17T19:09:45.377Z,27.10
2018-03-17T19:15:04.265Z,28.67
2018-03-17T19:17:32.722Z,31.67
2018-03-17T19:20:01.833Z,30.33
2018-03-17T19:22:30.710Z,35.07
2018-03-17T19:24:59.804Z,35.07
2018-03-17T19:27:28.250Z,35.47
2018-03-17T19:29:56.669Z,37.07
2018-03-17T19:32:25.081Z,32.23
2018-03-17T19:34:53.504Z,30.87
2018-03-17T19:37:21.923Z,32.20
2018-03-17T19:39:50.379Z,37.03
2018-03-17T19:42:18.804Z,35.77
2018-03-17T19:44:47.965Z,38.53
2018-03-17T19:47:16.389Z,36.00
2018-03-17T19:49:45.586Z,36.33
2018-03-17T19:52:14.056Z,36.93
2018-03-17T19:54:43.242Z,34.93
2018-03-17T19:57:12.243Z,35.50
2018-03-17T19:59:41.412Z,35.40
2018-03-17T20:02:09.500Z,35.70
2018-03-17T20:04:38.669Z,31.80
2018-03-17T20:07:07.100Z,31.13
2018-03-17T20:09:35.516Z,30.83
2018-03-17T20:12:03.951Z,32.40
2018-03-17T20:14:32.371Z,30.57
2018-03-17T20:17:01.157Z,43.23
2018-03-17T20:19:30.300Z,35.23
2018-03-17T20:21:59.471Z,31.70
2018-03-17T20:24:27.894Z,31.77
2018-03-17T20:26:56.309Z,33.33
2018-03-17T20:29:24.788Z,32.37
2018-03-17T20:31:53.206Z,28.60
2018-03-17T20:34:22.394Z,31.93
2018-03-17T20:36:50.807Z,30.30
2018-03-17T20:39:19.219Z,30.63
2018-03-17T20:41:47.631Z,30.83
2018-03-17T20:44:16.813Z,30.60
2018-03-17T20:46:45.255Z,28.60
2018-03-17T20:49:13.661Z,29.03
2018-03-17T20:51:42.082Z,29.70
2018-03-17T20:54:10.481Z,29.37
2018-03-17T20:56:38.908Z,35.43
2018-03-17T20:59:07.324Z,26.27
2018-03-17T21:01:35.723Z,28.23
2018-03-17T21:04:04.152Z,28.37
2018-03-17T21:06:33.333Z,30.87
2018-03-17T21:09:01.759Z,28.93
2018-03-17T21:11:30.162Z,30.40
2018-03-17T21:13:58.623Z,28.90
2018-03-17T21:16:27.019Z,27.57
2018-03-17T21:18:55.429Z,24.17
2018-03-17T21:21:24.627Z,27.37
2018-03-17T21:23:53.036Z,26.93
2018-03-17T21:26:21.483Z,28.47
2018-03-17T21:28:50.679Z,21.77
2018-03-17T21:31:19.101Z,28.20
2018-03-17T21:33:47.490Z,28.10
2018-03-17T21:36:15.908Z,25.90
2018-03-17T21:38:44.327Z,28.83
2018-03-17T21:41:12.744Z,31.97
2018-03-17T21:43:41.146Z,29.87
2018-03-17T21:46:09.572Z,26.43
2018-03-17T21:48:37.981Z,29.30
2018-03-17T21:51:06.377Z,29.87
2018-03-17T21:53:34.610Z,27.23
2018-03-17T21:56:03.038Z,27.30
2018-03-17T21:58:33.038Z,30.73
2018-03-17T22:01:01.997Z,28.70
2018-03-17T22:03:30.886Z,30.73
2018-03-17T22:05:59.482Z,27.80
2018-03-17T22:08:27.880Z,31.20
2018-03-17T22:10:56.326Z,28.57
2018-03-17T22:13:24.731Z,31.37
2018-03-17T22:15:53.142Z,28.23
2018-03-17T22:18:21.570Z,25.57
2018-03-17T22:20:49.978Z,28.77
2018-03-17T22:23:19.172Z,30.00
2018-03-17T22:25:47.609Z,32.00
2018-03-17T22:28:16.000Z,29.83
2018-03-17T22:30:44.416Z,31.63
2018-03-17T22:33:13.602Z,29.37
2018-03-17T22:35:42.798Z,29.00
2018-03-17T22:38:11.970Z,24.57
2018-03-17T22:40:40.377Z,27.23
2018-03-17T22:43:09.565Z,25.97
2018-03-17T22:45:37.972Z,28.10
2018-03-17T22:48:06.388Z,26.97
2018-03-17T22:50:34.790Z,28.53
2018-03-17T22:53:03.208Z,29.77
2018-03-17T22:55:32.537Z,28.83
2018-03-17T22:58:01.316Z,32.17
2018-03-17T23:00:30.524Z,31.13
2018-03-17T23:02:58.938Z,31.70
2018-03-17T23:05:27.942Z,29.17
2018-03-17T23:07:57.142Z,62.63
2018-03-17T23:10:26.312Z,49.47
2018-03-17T23:12:54.709Z,54.00
2018-03-17T23:15:23.744Z,37.60
2018-03-17T23:17:52.294Z,28.73
2018-03-17T23:20:20.703Z,34.33
2018-03-17T23:22:49.123Z,29.20
2018-03-17T23:25:17.531Z,28.23
2018-03-17T23:27:45.952Z,29.17
2018-03-17T23:30:14.156Z,40.20
2018-03-17T23:32:42.376Z,44.63
2018-03-17T23:35:10.790Z,30.17
2018-03-17T23:37:39.203Z,32.60
2018-03-17T23:40:08.205Z,35.17
2018-03-17T23:42:36.613Z,35.53
2018-03-17T23:45:04.185Z,30.33
2018-03-17T23:47:32.405Z,32.60
2018-03-17T23:50:01.761Z,37.60
2018-03-17T23:52:30.400Z,33.87
2018-03-17T23:54:58.776Z,24.87
2018-03-17T23:57:27.174Z,28.20
2018-03-17T23:59:55.412Z,37.73
